Terminal Aerodrome Forecast
Issued by NWS

Home | Current Version | Previous Version | Text Only | Print | Product List | Glossary On
Versions: 1 2 3 4 5 6 7 8 9 10 11 12 13 14
536
FTUS44 KLZK 241134
TAFHRO
TAF
KHRO 241134Z 2412/2512 17003KT P6SM SCT250
     FM241600 20006KT P6SM SCT045 BKN250
     FM250100 17003KT P6SM BKN250=

USA.gov is the U.S. government's official web portal to all federal, state and local government web resources and services.